Time;durP1;ratioP1;P1;durP2;ratioP2;P2;SDS_P1;SDS_P2;PMS_P1;PMS_P2;Temp;Humidity;BMP_temperature;BMP_pressure;BME280_temperature;BME280_humidity;BME280_pressure;Samples;Min_cycle;Max_cycle;Signal;HPM_P1;HPM_P2
2023/09/16 00:02:38;;;;;;;9.30;3.60;;;;;;;13.27;80.81;101152.96;217569;1290;142715;-87
2023/09/16 00:07:38;;;;;;;9.30;3.50;;;;;;;13.25;80.92;101143.92;218098;1290;138796;-88
2023/09/16 00:12:38;;;;;;;10.00;3.20;;;;;;;13.22;81.29;101142.86;217634;1288;140727;-88
2023/09/16 00:17:39;;;;;;;10.50;4.20;;;;;;;13.17;81.51;101140.84;218234;1289;95928;-87
2023/09/16 00:22:44;;;;;;;8.70;4.00;;;;;;;13.14;82.00;101143.81;217593;1289;140981;-87
2023/09/16 00:27:44;;;;;;;12.30;4.10;;;;;;;13.11;82.35;101145.81;218100;1289;139357;-88
2023/09/16 00:32:44;;;;;;;11.30;3.40;;;;;;;13.08;82.42;101147.35;217586;1289;210838;-87
2023/09/16 00:37:46;;;;;;;7.60;3.10;;;;;;;13.04;83.16;101145.09;218169;1288;139570;-88
2023/09/16 00:42:47;;;;;;;9.00;3.90;;;;;;;13.00;83.37;101144.73;217582;1289;141385;-86
2023/09/16 00:47:47;;;;;;;11.30;4.40;;;;;;;12.96;83.43;101136.70;218304;1289;96971;-87
2023/09/16 00:52:52;;;;;;;10.00;4.60;;;;;;;12.92;83.61;101142.63;217692;1289;140584;-88
2023/09/16 00:57:54;;;;;;;10.90;3.80;;;;;;;12.87;84.30;101145.47;218147;1290;139224;-87
2023/09/16 01:02:57;;;;;;;12.10;4.20;;;;;;;12.82;84.59;101147.95;217595;1289;141667;-88
2023/09/16 01:07:58;;;;;;;8.00;3.40;;;;;;;12.78;85.06;101157.20;218078;1290;139334;-87
2023/09/16 01:12:58;;;;;;;12.10;4.20;;;;;;;12.73;85.12;101158.47;217611;1289;142504;-87
2023/09/16 01:18:27;;;;;;;7.90;3.20;;;;;;;12.69;85.46;101164.88;218271;1289;95909;-86
2023/09/16 01:23:28;;;;;;;10.50;3.50;;;;;;;12.63;85.97;101162.90;217559;1293;141732;-87
2023/09/16 01:28:28;;;;;;;8.90;3.30;;;;;;;12.58;85.96;101158.81;218121;1291;139437;-87
2023/09/16 01:33:38;;;;;;;11.30;3.90;;;;;;;12.55;86.45;101156.86;217538;1289;140915;-87
2023/09/16 01:38:42;;;;;;;13.10;3.50;;;;;;;12.51;86.87;101154.91;218157;1289;139224;-87
2023/09/16 01:43:43;;;;;;;13.60;6.10;;;;;;;12.46;87.17;101149.16;217600;1289;142333;-86
2023/09/16 01:48:43;;;;;;;11.20;4.50;;;;;;;12.41;87.58;101149.95;218104;1289;138940;-87
2023/09/16 01:53:43;;;;;;;14.00;5.20;;;;;;;12.38;87.81;101145.73;217707;1290;142417;-87
2023/09/16 01:58:44;;;;;;;9.70;4.60;;;;;;;12.35;88.04;101140.31;218177;1289;139121;-87
2023/09/16 02:03:45;;;;;;;10.40;4.40;;;;;;;12.32;88.66;101147.45;217563;1289;140872;-87
2023/09/16 02:08:45;;;;;;;10.00;4.50;;;;;;;12.29;88.68;101150.80;218073;1289;139950;-87
2023/09/16 02:13:45;;;;;;;11.10;4.20;;;;;;;12.24;89.15;101146.30;217632;1289;142362;-87
2023/09/16 02:18:46;;;;;;;12.00;4.90;;;;;;;12.20;89.19;101149.70;218141;1288;139707;-87
2023/09/16 02:23:46;;;;;;;9.60;4.20;;;;;;;12.17;89.48;101153.52;217732;1289;140790;-87
2023/09/16 02:28:46;;;;;;;13.10;4.70;;;;;;;12.13;89.53;101153.67;218111;1289;138992;-87
2023/09/16 02:33:47;;;;;;;11.00;4.10;;;;;;;12.09;89.76;101151.64;217629;1289;140842;-87
2023/09/16 02:38:48;;;;;;;10.20;4.30;;;;;;;12.05;90.69;101143.78;218340;1289;137851;-87
2023/09/16 02:43:48;;;;;;;11.00;4.70;;;;;;;12.00;90.44;101137.21;217656;1288;141716;-87
2023/09/16 02:48:49;;;;;;;10.70;5.20;;;;;;;11.96;90.52;101132.35;218152;1289;138968;-87
2023/09/16 02:53:49;;;;;;;9.10;4.30;;;;;;;11.91;91.08;101126.98;217656;1290;140841;-87
2023/09/16 02:58:52;;;;;;;13.20;5.20;;;;;;;11.86;91.47;101126.76;218116;1290;139599;-87
2023/09/16 03:03:52;;;;;;;13.10;4.50;;;;;;;11.82;91.46;101132.59;217604;1289;141025;-87
2023/09/16 03:08:52;;;;;;;11.80;4.50;;;;;;;11.78;91.77;101137.48;218125;1289;139395;-87
2023/09/16 03:13:54;;;;;;;12.70;4.90;;;;;;;11.74;92.41;101133.48;217650;1290;141244;-87
2023/09/16 03:18:55;;;;;;;9.60;4.50;;;;;;;11.70;92.36;101124.33;218117;1289;139463;-87
2023/09/16 03:23:55;;;;;;;10.80;4.80;;;;;;;11.66;92.91;101116.39;217758;1289;141263;-87
2023/09/16 03:28:56;;;;;;;10.40;4.50;;;;;;;11.63;93.13;101114.45;218132;1289;138998;-87
2023/09/16 03:33:56;;;;;;;11.60;4.30;;;;;;;11.58;93.03;101100.40;217569;1289;141077;-86
2023/09/16 03:38:56;;;;;;;10.70;4.70;;;;;;;11.55;93.48;101100.55;218179;1289;140374;-86
2023/09/16 03:43:57;;;;;;;12.80;4.50;;;;;;;11.50;93.71;101100.07;217643;1289;140939;-87
2023/09/16 03:48:57;;;;;;;12.10;4.80;;;;;;;11.45;94.34;101096.61;218168;1289;139309;-87
2023/09/16 03:53:57;;;;;;;13.40;5.40;;;;;;;11.42;94.53;101100.42;217645;1289;141344;-86
2023/09/16 03:58:58;;;;;;;12.30;4.70;;;;;;;11.41;94.61;101099.05;218095;1290;138886;-87
2023/09/16 04:03:58;;;;;;;16.60;5.30;;;;;;;11.39;95.39;101096.81;217621;1289;141154;-86
2023/09/16 04:08:59;;;;;;;11.20;4.50;;;;;;;11.35;95.64;101098.08;218144;1289;138972;-87
2023/09/16 04:13:59;;;;;;;11.60;5.30;;;;;;;11.33;95.69;101094.17;217540;1289;140943;-88
2023/09/16 04:19:00;;;;;;;10.00;5.40;;;;;;;11.29;96.08;101089.63;218147;1290;139008;-87
2023/09/16 04:24:00;;;;;;;11.40;5.30;;;;;;;11.26;96.07;101084.22;217804;1290;141460;-86
2023/09/16 04:29:00;;;;;;;10.00;4.50;;;;;;;11.24;96.49;101081.10;218194;1289;139446;-86
2023/09/16 04:34:01;;;;;;;11.50;4.80;;;;;;;11.21;96.44;101083.97;217663;1289;143891;-85
2023/09/16 04:39:01;;;;;;;11.30;4.70;;;;;;;11.20;96.95;101083.30;218144;1290;139506;-87
2023/09/16 04:44:03;;;;;;;11.70;5.20;;;;;;;11.17;97.17;101084.98;217554;1290;143148;-87
2023/09/16 04:49:04;;;;;;;10.60;4.60;;;;;;;11.15;96.92;101080.29;218140;1288;139532;-86
2023/09/16 04:54:05;;;;;;;12.60;5.20;;;;;;;11.13;97.29;101080.42;217739;1289;141889;-86
2023/09/16 04:59:05;;;;;;;14.00;5.20;;;;;;;11.12;98.28;101083.46;217982;1291;139390;-87
2023/09/16 05:04:06;;;;;;;12.40;5.00;;;;;;;11.12;98.23;101090.79;217873;1289;140199;-86
2023/09/16 05:09:06;;;;;;;12.90;5.10;;;;;;;11.13;99.00;101087.65;217729;1289;141598;-83
2023/09/16 05:14:07;;;;;;;12.00;4.90;;;;;;;11.15;98.71;101099.36;218192;1291;139850;-86
2023/09/16 05:19:08;;;;;;;12.90;5.70;;;;;;;11.19;99.26;101095.41;217999;1290;141969;-86
2023/09/16 05:24:08;;;;;;;13.60;4.50;;;;;;;11.23;99.38;101081.64;217921;1288;223492;-87
2023/09/16 05:29:09;;;;;;;14.60;5.60;;;;;;;11.30;99.33;101087.98;217587;1289;142331;-86
2023/09/16 05:34:09;;;;;;;13.10;5.00;;;;;;;11.35;99.30;101091.30;218215;1289;139800;-86
2023/09/16 05:39:10;;;;;;;10.60;5.40;;;;;;;11.42;99.22;101088.04;217661;1290;141128;-86
2023/09/16 05:44:10;;;;;;;9.70;5.00;;;;;;;11.49;99.49;101089.68;218158;1289;139051;-87
2023/09/16 05:49:11;;;;;;;14.30;5.90;;;;;;;11.58;99.50;101095.20;217644;1288;142104;-85
2023/09/16 05:54:13;;;;;;;11.50;5.20;;;;;;;11.69;99.60;101096.89;218298;1288;96133;-86
2023/09/16 05:59:16;;;;;;;12.90;5.90;;;;;;;11.80;99.59;101094.50;217652;1288;142090;-86
2023/09/16 06:04:17;;;;;;;10.00;4.40;;;;;;;11.93;99.68;101095.58;218134;1289;139643;-85
2023/09/16 06:09:17;;;;;;;16.00;5.50;;;;;;;12.07;99.50;101096.11;217708;1288;142987;-86
2023/09/16 06:14:18;;;;;;;10.50;4.70;;;;;;;12.24;99.53;101097.95;218261;1288;139374;-86
2023/09/16 06:19:18;;;;;;;10.30;4.50;;;;;;;12.43;99.33;101099.81;217673;1290;140774;-87
2023/09/16 06:24:19;;;;;;;13.00;5.20;;;;;;;12.62;99.03;101096.13;218288;1291;96091;-85
2023/09/16 06:29:19;;;;;;;9.80;5.10;;;;;;;12.79;98.72;101098.01;217648;1290;142609;-87
2023/09/16 06:34:20;;;;;;;13.40;5.40;;;;;;;12.93;98.42;101093.79;218145;1290;138965;-88
2023/09/16 06:39:21;;;;;;;9.10;4.70;;;;;;;13.09;98.58;101090.59;217675;1289;141811;-87
2023/09/16 06:44:21;;;;;;;10.70;4.80;;;;;;;13.26;98.46;101090.77;218170;1290;139293;-87
2023/09/16 06:49:22;;;;;;;13.50;5.30;;;;;;;13.52;98.15;101085.75;217645;1288;141478;-86
2023/09/16 06:54:23;;;;;;;17.50;5.50;;;;;;;13.76;97.56;101083.69;218320;1289;96343;-87
2023/09/16 06:59:23;;;;;;;12.30;4.90;;;;;;;13.96;97.21;101084.88;217687;1288;140781;-87
2023/09/16 07:04:26;;;;;;;13.50;5.60;;;;;;;14.14;96.82;101083.52;218242;1290;139423;-87
2023/09/16 07:09:27;;;;;;;12.50;5.30;;;;;;;14.38;96.26;101081.56;217661;1290;141557;-88
2023/09/16 07:14:27;;;;;;;15.90;5.10;;;;;;;14.58;95.63;101081.76;218244;1288;140617;-87
2023/09/16 07:19:28;;;;;;;10.50;4.70;;;;;;;14.78;94.81;101082.33;217648;1290;141325;-87
2023/09/16 07:24:31;;;;;;;14.10;4.70;;;;;;;15.03;94.29;101064.92;218312;1289;95960;-89
2023/09/16 07:29:31;;;;;;;8.40;4.00;;;;;;;15.26;93.53;101061.27;217622;1290;140910;-88
2023/09/16 07:34:32;;;;;;;10.40;4.10;;;;;;;15.49;93.05;101063.63;218275;1288;138847;-87
2023/09/16 07:39:32;;;;;;;13.40;4.30;;;;;;;15.73;92.04;101055.16;217690;1290;141802;-87
2023/09/16 07:44:32;;;;;;;10.10;4.50;;;;;;;16.03;89.87;101044.43;218229;1288;139013;-87
2023/09/16 07:49:33;;;;;;;9.90;3.70;;;;;;;16.24;89.32;101045.20;217606;1290;141690;-87
2023/09/16 07:54:33;;;;;;;9.20;3.50;;;;;;;16.46;88.38;101046.91;218272;1288;96052;-86
2023/09/16 07:59:34;;;;;;;9.80;3.80;;;;;;;16.70;87.84;101045.09;217656;1290;140347;-88
2023/09/16 08:04:34;;;;;;;9.00;3.10;;;;;;;16.96;86.65;101045.84;218142;1290;138695;-89
2023/09/16 08:09:35;;;;;;;8.80;3.70;;;;;;;17.22;84.90;101047.28;217500;1293;141006;-86
2023/09/16 08:14:36;;;;;;;7.00;2.50;;;;;;;17.48;84.29;101045.94;218078;1290;138928;-87
2023/09/16 08:19:36;;;;;;;8.20;3.10;;;;;;;17.76;83.99;101050.17;217590;1288;140904;-87
2023/09/16 08:24:36;;;;;;;7.40;2.60;;;;;;;18.04;82.50;101059.01;218213;1290;96050;-88
2023/09/16 08:29:37;;;;;;;8.00;2.90;;;;;;;18.31;80.63;101054.54;217646;1288;140796;-87
2023/09/16 08:34:37;;;;;;;7.70;2.70;;;;;;;18.57;79.28;101053.70;218075;1290;139477;-87
2023/09/16 08:39:38;;;;;;;10.90;2.60;;;;;;;18.82;77.77;101054.27;217531;1289;141164;-89
2023/09/16 08:44:43;;;;;;;5.90;2.40;;;;;;;19.10;76.85;101055.81;218147;1290;139776;-89
2023/09/16 08:49:50;;;;;;;8.60;2.30;;;;;;;19.41;74.52;101051.41;217540;1292;141186;-88
2023/09/16 08:54:51;;;;;;;6.60;2.60;;;;;;;19.79;72.96;101040.27;218175;1289;139056;-88
2023/09/16 08:59:56;;;;;;;6.40;2.30;;;;;;;20.26;72.58;101032.66;217822;1291;141962;-88
2023/09/16 09:04:57;;;;;;;6.20;2.30;;;;;;;20.84;70.57;101031.28;218079;1289;139563;-88
2023/09/16 09:10:01;;;;;;;10.10;2.90;;;;;;;21.43;68.99;101031.29;217683;1290;140047;-88
2023/09/16 09:15:08;;;;;;;11.10;2.40;;;;;;;22.18;67.49;101027.80;218116;1289;139258;-88
2023/09/16 09:20:13;;;;;;;8.20;2.40;;;;;;;22.94;64.67;101029.92;217657;1290;140024;-87
2023/09/16 09:25:14;;;;;;;5.50;2.10;;;;;;;23.60;63.45;101021.75;218121;1290;138315;-88
2023/09/16 09:30:57;;;;;;;6.90;2.50;;;;;;;24.14;61.26;101007.31;217731;1290;140325;-88
2023/09/16 09:36:11;;;;;;;6.30;2.40;;;;;;;24.54;58.45;101000.46;218277;1289;111676;-87
2023/09/16 09:41:13;;;;;;;9.90;2.60;;;;;;;24.95;59.19;100992.88;217595;1290;140408;-87
2023/09/16 09:46:14;;;;;;;8.90;2.90;;;;;;;25.67;56.71;100983.83;218297;1288;138676;-90
2023/09/16 09:51:18;;;;;;;8.90;3.10;;;;;;;25.78;54.41;100982.73;217771;1293;140321;-86
2023/09/16 09:56:18;;;;;;;6.00;2.30;;;;;;;26.24;54.66;100984.54;218124;1292;138911;-88
2023/09/16 10:01:19;;;;;;;7.80;2.50;;;;;;;26.58;52.69;100981.14;217707;1290;139711;-88
2023/09/16 10:06:20;;;;;;;6.10;2.30;;;;;;;26.73;51.22;100990.54;218334;1291;95856;-89
2023/09/16 10:11:21;;;;;;;7.40;2.50;;;;;;;26.93;50.50;100985.21;217686;1291;139721;-88
2023/09/16 10:16:22;;;;;;;6.80;2.20;;;;;;;27.25;50.19;100971.84;218197;1291;138226;-88
2023/09/16 10:21:22;;;;;;;11.20;2.80;;;;;;;27.51;48.45;100972.23;217606;1289;139868;-89
2023/09/16 10:26:23;;;;;;;7.70;2.60;;;;;;;27.56;48.37;100964.51;218265;1289;139037;-89
2023/09/16 10:31:24;;;;;;;9.40;2.90;;;;;;;27.89;47.75;100958.27;217567;1290;139543;-87
2023/09/16 10:36:25;;;;;;;7.00;2.80;;;;;;;28.03;46.58;100952.42;218351;1289;96221;-90
2023/09/16 10:41:26;;;;;;;9.40;3.00;;;;;;;27.76;45.21;100949.28;217642;1290;140240;-88
2023/09/16 10:46:28;;;;;;;8.30;2.90;;;;;;;27.23;45.51;100946.77;218229;1288;138168;-89
2023/09/16 10:51:36;;;;;;;9.40;2.30;;;;;;;27.21;44.93;100947.86;217723;1293;139986;-89
2023/09/16 10:56:44;;;;;;;7.60;2.80;;;;;;;27.35;44.93;100943.87;218208;1293;138217;-86
2023/09/16 11:01:56;;;;;;;8.40;3.10;;;;;;;27.59;45.50;100936.20;217605;1291;141371;-89
2023/09/16 11:06:58;;;;;;;5.80;2.70;;;;;;;27.75;44.47;100935.20;218071;1292;138248;-90
2023/09/16 11:11:59;;;;;;;8.70;2.80;;;;;;;27.74;44.38;100925.51;217750;1292;141682;-88
2023/09/16 11:17:10;;;;;;;5.10;2.30;;;;;;;27.62;44.80;100917.77;218168;1295;138594;-89
2023/09/16 11:22:11;;;;;;;8.70;2.90;;;;;;;27.69;43.81;100913.12;217595;1289;139885;-88
2023/09/16 11:27:19;;;;;;;9.80;2.60;;;;;;;27.59;43.85;100908.28;218093;1289;138726;-85
2023/09/16 11:32:21;;;;;;;6.40;3.10;;;;;;;27.38;43.78;100904.55;217633;1293;142254;-86
2023/09/16 11:37:24;;;;;;;5.80;2.60;;;;;;;27.41;44.22;100902.63;218305;1288;138779;-88
2023/09/16 11:42:24;;;;;;;6.30;2.90;;;;;;;27.46;43.91;100908.71;217711;1290;140172;-89
2023/09/16 11:47:30;;;;;;;6.90;2.10;;;;;;;27.56;43.88;100902.74;218099;1290;138327;-88
2023/09/16 11:52:31;;;;;;;6.50;2.40;;;;;;;27.61;43.22;100902.23;217520;1289;140612;-89
2023/09/16 11:57:31;;;;;;;6.40;2.40;;;;;;;27.40;42.91;100906.45;218159;1289;138124;-87
2023/09/16 12:02:31;;;;;;;8.40;2.30;;;;;;;27.38;44.14;100901.73;217659;1290;140641;-88
2023/09/16 12:07:37;;;;;;;9.80;2.40;;;;;;;27.48;43.31;100897.80;218203;1289;138319;-89
2023/09/16 12:12:38;;;;;;;7.70;2.20;;;;;;;27.27;44.45;100893.63;217706;1290;141480;-88
2023/09/16 12:17:39;;;;;;;5.90;2.40;;;;;;;27.20;43.07;100890.23;218185;1288;138528;-87
2023/09/16 12:22:43;;;;;;;7.10;2.50;;;;;;;26.77;43.72;100880.13;217684;1288;140614;-88
2023/09/16 12:27:43;;;;;;;6.50;3.20;;;;;;;26.85;45.13;100871.56;218171;1293;141769;-88
2023/09/16 12:32:51;;;;;;;7.50;2.20;;;;;;;26.97;43.84;100865.95;217718;1289;140369;-87
2023/09/16 12:37:51;;;;;;;6.40;2.40;;;;;;;26.75;43.73;100862.13;218102;1289;138902;-87
2023/09/16 12:42:52;;;;;;;5.40;2.60;;;;;;;26.44;42.93;100853.83;217663;1289;139996;-87
2023/09/16 12:47:53;;;;;;;6.40;2.60;;;;;;;26.27;44.16;100848.27;218299;1289;96092;-88
2023/09/16 12:52:54;;;;;;;9.40;2.80;;;;;;;26.45;44.62;100841.89;217678;1288;139792;-88
2023/09/16 12:57:57;;;;;;;6.20;2.50;;;;;;;26.52;45.12;100840.02;218238;1289;138528;-88
2023/09/16 13:03:00;;;;;;;6.00;2.60;;;;;;;26.46;45.01;100838.83;217587;1289;140592;-88
2023/09/16 13:08:01;;;;;;;5.30;2.30;;;;;;;26.35;44.94;100832.41;218135;1289;139983;-86
2023/09/16 13:13:02;;;;;;;5.10;2.80;;;;;;;26.27;45.03;100829.27;217591;1289;141290;-87
2023/09/16 13:18:04;;;;;;;4.50;2.40;;;;;;;26.23;44.78;100833.73;218275;1288;96164;-87
2023/09/16 13:23:04;;;;;;;6.90;2.40;;;;;;;26.12;45.24;100829.39;217801;1289;139735;-86
2023/09/16 13:28:06;;;;;;;14.10;4.10;;;;;;;26.02;45.41;100821.54;218230;1288;138318;-87
2023/09/16 13:33:08;;;;;;;8.50;2.60;;;;;;;25.98;44.77;100816.30;217720;1289;140336;-87
2023/09/16 13:38:09;;;;;;;7.10;3.50;;;;;;;25.93;44.89;100815.20;218122;1289;138158;-85
2023/09/16 13:43:10;;;;;;;6.50;3.00;;;;;;;25.85;44.97;100816.59;217628;1291;141919;-87
2023/09/16 13:48:18;;;;;;;6.90;2.80;;;;;;;25.81;44.85;100815.63;218309;1289;96484;-87
2023/09/16 13:53:18;;;;;;;10.60;3.50;;;;;;;25.76;45.22;100804.70;217639;1289;140958;-88
2023/09/16 13:58:19;;;;;;;10.30;3.40;;;;;;;25.62;45.33;100793.66;218255;1289;139988;-87
2023/09/16 14:03:20;;;;;;;7.60;3.10;;;;;;;25.58;45.43;100791.23;217644;1289;140831;-86
2023/09/16 14:08:20;;;;;;;10.10;4.90;;;;;;;25.44;44.87;100785.91;218113;1290;138635;-87
2023/09/16 14:13:21;;;;;;;6.40;3.30;;;;;;;25.38;45.25;100784.66;217672;1290;140872;-88
2023/09/16 14:18:21;;;;;;;9.50;3.10;;;;;;;25.31;45.09;100775.92;218271;1288;96264;-87
2023/09/16 14:23:22;;;;;;;8.60;3.30;;;;;;;25.18;45.26;100770.54;217656;1288;139702;-86
2023/09/16 14:28:22;;;;;;;11.10;4.40;;;;;;;25.09;45.30;100762.86;218221;1289;137973;-85
2023/09/16 14:33:22;;;;;;;7.10;3.40;;;;;;;24.96;45.39;100755.86;217628;1288;141028;-86
2023/09/16 14:38:23;;;;;;;7.10;3.40;;;;;;;24.86;45.67;100751.31;218316;1289;138787;-86
2023/09/16 14:43:23;;;;;;;8.50;4.00;;;;;;;24.78;45.91;100748.37;217609;1290;139964;-87
2023/09/16 14:48:24;;;;;;;11.80;3.90;;;;;;;24.66;45.90;100741.06;218269;1289;95915;-86
2023/09/16 14:53:24;;;;;;;8.10;3.60;;;;;;;24.53;45.96;100736.59;217613;1289;139160;-86
2023/09/16 14:58:24;;;;;;;9.00;4.10;;;;;;;24.42;46.23;100728.92;218152;1289;138744;-87
2023/09/16 15:03:25;;;;;;;10.70;4.30;;;;;;;24.36;46.38;100724.59;217698;1288;140205;-86
2023/09/16 15:08:25;;;;;;;10.10;4.20;;;;;;;24.29;46.37;100725.52;218203;1289;139418;-87
2023/09/16 15:13:26;;;;;;;9.40;4.20;;;;;;;24.18;46.22;100723.80;217711;1290;141757;-86
2023/09/16 15:18:27;;;;;;;11.50;4.60;;;;;;;24.08;46.65;100717.80;218332;1290;95819;-87
2023/09/16 15:23:27;;;;;;;9.30;3.40;;;;;;;24.00;46.69;100714.24;217585;1288;139995;-86
2023/09/16 15:28:27;;;;;;;9.70;3.50;;;;;;;23.91;46.73;100711.30;218249;1289;138250;-86
2023/09/16 15:33:28;;;;;;;12.60;4.20;;;;;;;23.84;47.36;100711.23;217715;1288;141517;-87
2023/09/16 15:38:29;;;;;;;13.90;3.90;;;;;;;23.75;47.92;100708.75;218171;1289;138995;-87
2023/09/16 15:43:32;;;;;;;8.70;4.00;;;;;;;23.70;48.50;100708.23;217685;1288;140729;-87
2023/09/16 15:48:32;;;;;;;9.00;3.80;;;;;;;23.64;49.08;100703.98;218202;1288;96869;-87
2023/09/16 15:53:33;;;;;;;12.00;4.30;;;;;;;23.52;49.84;100697.20;217708;1289;141698;-87
2023/09/16 15:58:33;;;;;;;6.90;4.00;;;;;;;23.43;50.36;100694.33;218188;1289;138230;-88
2023/09/16 16:03:34;;;;;;;9.90;4.20;;;;;;;23.36;50.71;100688.60;217710;1289;140529;-86
2023/09/16 16:08:35;;;;;;;11.50;3.90;;;;;;;23.28;51.44;100677.00;218220;1290;138155;-86
2023/09/16 16:13:35;;;;;;;12.50;3.90;;;;;;;23.19;52.07;100671.31;217653;1288;140533;-87
2023/09/16 16:18:36;;;;;;;10.20;4.10;;;;;;;23.09;52.69;100672.06;218308;1288;96096;-86
2023/09/16 16:23:37;;;;;;;7.60;3.50;;;;;;;23.00;53.00;100670.70;217689;1288;139975;-86
2023/09/16 16:28:37;;;;;;;9.80;4.20;;;;;;;22.90;53.24;100666.88;218210;1289;139533;-85
2023/09/16 16:33:37;;;;;;;16.00;4.20;;;;;;;22.80;53.63;100670.13;217649;1289;139893;-86
2023/09/16 16:38:38;;;;;;;8.80;4.20;;;;;;;22.71;54.14;100672.05;218148;1289;138974;-86
2023/09/16 16:43:39;;;;;;;14.00;4.40;;;;;;;22.62;54.46;100670.59;217705;1290;138976;-85
2023/09/16 16:48:39;;;;;;;9.60;3.80;;;;;;;22.52;54.72;100669.59;218319;1288;96298;-86
2023/09/16 16:53:40;;;;;;;11.10;3.70;;;;;;;22.43;55.20;100667.55;217764;1288;140004;-87
2023/09/16 16:58:40;;;;;;;8.90;4.40;;;;;;;22.30;55.79;100663.73;218345;1288;138160;-87
2023/09/16 17:03:41;;;;;;;8.00;4.20;;;;;;;22.14;56.41;100661.45;217665;1289;142170;-86
2023/09/16 17:08:41;;;;;;;10.00;4.30;;;;;;;22.03;56.99;100659.02;218122;1288;140054;-87
2023/09/16 17:13:42;;;;;;;10.10;4.30;;;;;;;21.86;57.50;100659.63;217587;1290;140433;-86
2023/09/16 17:18:43;;;;;;;11.60;4.70;;;;;;;21.73;58.07;100664.45;218297;1288;96108;-87
2023/09/16 17:23:45;;;;;;;8.80;4.40;;;;;;;21.58;58.83;100664.38;217687;1288;141441;-86
2023/09/16 17:28:47;;;;;;;9.40;4.80;;;;;;;21.41;59.71;100669.30;218244;1288;138469;-86
2023/09/16 17:33:47;;;;;;;12.70;4.90;;;;;;;21.27;60.51;100671.38;217510;1289;141010;-86
2023/09/16 17:38:49;;;;;;;12.70;5.70;;;;;;;21.11;60.61;100679.52;218212;1288;139341;-86
2023/09/16 17:43:50;;;;;;;11.00;4.60;;;;;;;20.97;61.32;100679.10;217571;1289;140204;-86
2023/09/16 17:48:50;;;;;;;11.30;4.80;;;;;;;20.84;61.75;100679.37;218163;1288;138859;-85
2023/09/16 17:53:50;;;;;;;12.30;5.80;;;;;;;20.72;62.03;100681.67;217831;1289;140810;-87
2023/09/16 17:58:51;;;;;;;11.80;5.20;;;;;;;20.59;62.79;100690.73;218194;1289;138497;-87
2023/09/16 18:03:51;;;;;;;11.50;5.90;;;;;;;20.49;63.13;100695.70;217702;1289;141869;-87
2023/09/16 18:08:51;;;;;;;11.50;5.80;;;;;;;20.38;63.58;100700.60;218157;1289;138840;-87
2023/09/16 18:13:52;;;;;;;16.10;5.60;;;;;;;20.30;63.79;100706.48;217680;1289;141860;-87
2023/09/16 18:18:54;;;;;;;14.50;5.80;;;;;;;20.23;64.13;100704.55;218156;1289;138795;-86
2023/09/16 18:23:55;;;;;;;10.00;5.20;;;;;;;20.15;64.57;100703.16;217833;1288;140869;-86
2023/09/16 18:28:55;;;;;;;11.70;5.40;;;;;;;20.06;64.93;100701.21;218249;1288;138769;-85
2023/09/16 18:33:55;;;;;;;12.70;6.00;;;;;;;19.97;65.60;100703.17;217672;1288;140233;-86
2023/09/16 18:38:57;;;;;;;14.10;6.00;;;;;;;19.86;66.15;100702.92;218095;1289;138259;-87
2023/09/16 18:44:03;;;;;;;13.50;5.60;;;;;;;19.77;66.56;100702.81;217698;1288;141052;-86
2023/09/16 18:49:04;;;;;;;15.20;6.20;;;;;;;19.67;67.31;100696.18;217957;1290;139398;-86
2023/09/16 18:54:05;;;;;;;11.10;5.90;;;;;;;19.56;67.93;100698.80;217662;1289;140978;-86
2023/09/16 18:59:05;;;;;;;13.30;5.70;;;;;;;19.47;68.30;100697.64;218051;1289;139097;-86
2023/09/16 19:04:06;;;;;;;15.00;7.50;;;;;;;19.40;68.80;100695.31;217639;1290;140493;-86
2023/09/16 19:09:06;;;;;;;13.70;6.50;;;;;;;19.33;69.23;100698.00;217618;1290;141853;-83
2023/09/16 19:14:08;;;;;;;16.00;6.90;;;;;;;19.25;69.58;100692.02;217953;1289;138863;-86
2023/09/16 19:19:08;;;;;;;14.90;6.90;;;;;;;19.19;70.13;100690.13;217620;1289;140504;-85
2023/09/16 19:24:09;;;;;;;12.10;7.00;;;;;;;19.10;70.53;100683.13;218142;1289;112098;-86
2023/09/16 19:29:09;;;;;;;14.60;7.80;;;;;;;19.02;71.05;100684.09;217541;1290;139267;-86
2023/09/16 19:34:10;;;;;;;13.00;7.60;;;;;;;18.93;71.80;100684.33;218094;1290;138604;-86
2023/09/16 19:39:10;;;;;;;19.20;9.10;;;;;;;18.85;72.55;100682.73;217747;1289;140560;-86
2023/09/16 19:44:10;;;;;;;17.00;8.30;;;;;;;18.78;72.89;100684.92;218217;1289;138929;-87
2023/09/16 19:49:11;;;;;;;17.80;7.90;;;;;;;18.74;73.54;100684.22;217588;1288;141702;-85
2023/09/16 19:54:12;;;;;;;16.30;8.30;;;;;;;18.69;74.04;100683.35;218196;1290;96340;-86
2023/09/16 19:59:12;;;;;;;17.90;8.40;;;;;;;18.65;74.70;100683.35;217557;1288;140668;-86
2023/09/16 20:04:13;;;;;;;15.80;7.60;;;;;;;18.62;74.73;100683.08;218034;1290;139819;-86
2023/09/16 20:09:13;;;;;;;17.50;8.60;;;;;;;18.60;75.42;100679.92;217555;1290;141067;-86
2023/09/16 20:14:14;;;;;;;17.20;8.70;;;;;;;18.59;75.76;100673.33;218086;1290;139556;-86
2023/09/16 20:19:18;;;;;;;17.20;8.60;;;;;;;18.58;75.78;100675.34;217491;1290;142229;-85
2023/09/16 20:24:18;;;;;;;17.10;8.50;;;;;;;18.54;76.22;100671.13;218082;1289;111157;-86
2023/09/16 20:29:19;;;;;;;15.10;8.00;;;;;;;18.50;76.34;100671.65;217603;1289;142183;-86
2023/09/16 20:34:20;;;;;;;17.60;9.10;;;;;;;18.45;76.59;100674.91;218600;1288;140065;-86
2023/09/16 20:39:20;;;;;;;16.40;8.40;;;;;;;18.39;76.82;100676.21;217673;1290;141398;-85
2023/09/16 20:44:21;;;;;;;16.50;9.00;;;;;;;18.34;77.15;100673.44;218171;1289;139304;-86
2023/09/16 20:49:22;;;;;;;17.00;9.10;;;;;;;18.29;77.41;100662.91;217555;1289;141978;-85
2023/09/16 20:54:22;;;;;;;15.80;9.00;;;;;;;18.24;77.79;100663.54;218145;1290;96710;-87
2023/09/16 20:59:23;;;;;;;18.00;9.70;;;;;;;18.19;78.23;100660.45;217571;1290;142159;-86
2023/09/16 21:04:23;;;;;;;19.30;9.30;;;;;;;18.13;78.61;100654.74;218146;1289;139962;-87
2023/09/16 21:09:24;;;;;;;25.60;9.10;;;;;;;18.07;79.11;100656.19;217508;1290;142590;-87
2023/09/16 21:14:24;;;;;;;17.60;10.00;;;;;;;18.02;79.38;100655.72;218146;1290;139492;-87
2023/09/16 21:19:25;;;;;;;17.40;10.30;;;;;;;17.98;79.86;100651.80;217590;1288;141552;-86
2023/09/16 21:24:25;;;;;;;20.20;10.20;;;;;;;17.96;80.25;100649.90;218209;1290;96206;-87
2023/09/16 21:29:25;;;;;;;17.20;9.20;;;;;;;17.94;80.41;100648.27;217602;1289;141892;-87
2023/09/16 21:34:26;;;;;;;16.90;9.10;;;;;;;17.92;80.84;100650.14;218029;1289;139414;-87
2023/09/16 21:39:26;;;;;;;18.50;9.40;;;;;;;17.91;81.18;100653.58;217608;1289;140622;-87
2023/09/16 21:44:27;;;;;;;18.00;9.30;;;;;;;17.92;81.46;100650.86;218156;1289;139875;-87
2023/09/16 21:49:28;;;;;;;13.10;8.10;;;;;;;17.90;81.65;100653.90;217560;1290;142154;-87
2023/09/16 21:54:28;;;;;;;20.90;10.10;;;;;;;17.88;81.63;100645.34;218139;1289;105552;-87
2023/09/16 21:59:29;;;;;;;18.70;9.90;;;;;;;17.85;82.05;100639.09;217562;1290;141773;-87
2023/09/16 22:04:29;;;;;;;21.50;10.10;;;;;;;17.82;82.52;100638.35;218073;1289;139090;-87
2023/09/16 22:09:29;;;;;;;18.50;9.30;;;;;;;17.79;82.64;100638.73;217562;1289;144197;-87
2023/09/16 22:14:30;;;;;;;18.80;10.00;;;;;;;17.75;82.92;100640.84;218223;1288;139454;-87
2023/09/16 22:19:30;;;;;;;15.70;9.70;;;;;;;17.71;83.16;100636.69;217619;1289;141491;-87
2023/09/16 22:24:31;;;;;;;23.60;10.70;;;;;;;17.69;83.26;100639.66;218238;1289;95954;-87
2023/09/16 22:29:31;;;;;;;17.20;10.60;;;;;;;17.64;83.84;100634.97;217579;1290;143230;-87
2023/09/16 22:34:33;;;;;;;16.30;10.40;;;;;;;17.59;84.10;100634.39;217990;1289;139832;-88
2023/09/16 22:39:34;;;;;;;23.70;11.90;;;;;;;17.54;84.58;100633.44;217302;1290;141796;-87